sensor_id;sensor_type;location;lat;lon;timestamp;pressure;altitude;pressure_sealevel;temperature;humidity
11413;BME280;5762;43.256;26.960;2023-03-22T00:00:41;99504.63;;;8.06;100.00
11413;BME280;5762;43.256;26.960;2023-03-22T00:03:10;99500.34;;;8.03;100.00
11413;BME280;5762;43.256;26.960;2023-03-22T00:05:39;99504.56;;;8.12;100.00
11413;BME280;5762;43.256;26.960;2023-03-22T00:08:08;99498.20;;;8.02;100.00
11413;BME280;5762;43.256;26.960;2023-03-22T00:10:36;99504.00;;;8.15;100.00
11413;BME280;5762;43.256;26.960;2023-03-22T00:13:06;99513.22;;;8.08;100.00
11413;BME280;5762;43.256;26.960;2023-03-22T00:15:35;99516.15;;;8.12;100.00
11413;BME280;5762;43.256;26.960;2023-03-22T00:18:03;99513.66;;;8.18;100.00
11413;BME280;5762;43.256;26.960;2023-03-22T00:20:32;99507.49;;;8.15;100.00
11413;BME280;5762;43.256;26.960;2023-03-22T00:23:01;99516.07;;;8.20;100.00
11413;BME280;5762;43.256;26.960;2023-03-22T00:25:29;99525.33;;;8.35;100.00
11413;BME280;5762;43.256;26.960;2023-03-22T00:27:58;99526.88;;;8.17;100.00
11413;BME280;5762;43.256;26.960;2023-03-22T00:30:27;99526.82;;;8.22;100.00
11413;BME280;5762;43.256;26.960;2023-03-22T00:32:55;99523.44;;;8.12;100.00
11413;BME280;5762;43.256;26.960;2023-03-22T00:35:24;99520.45;;;8.13;100.00
11413;BME280;5762;43.256;26.960;2023-03-22T00:37:52;99511.48;;;8.20;100.00
11413;BME280;5762;43.256;26.960;2023-03-22T00:40:21;99515.44;;;8.28;100.00
11413;BME280;5762;43.256;26.960;2023-03-22T00:42:50;99514.46;;;8.19;100.00
11413;BME280;5762;43.256;26.960;2023-03-22T00:45:18;99508.84;;;8.15;100.00
11413;BME280;5762;43.256;26.960;2023-03-22T00:47:47;99504.02;;;8.12;100.00
11413;BME280;5762;43.256;26.960;2023-03-22T00:50:16;99503.90;;;7.98;100.00
11413;BME280;5762;43.256;26.960;2023-03-22T00:52:45;99515.38;;;8.09;100.00
11413;BME280;5762;43.256;26.960;2023-03-22T00:55:13;99516.20;;;8.07;100.00
11413;BME280;5762;43.256;26.960;2023-03-22T00:57:42;99513.69;;;8.16;100.00
11413;BME280;5762;43.256;26.960;2023-03-22T01:00:11;99509.84;;;8.22;100.00
11413;BME280;5762;43.256;26.960;2023-03-22T01:02:39;99510.95;;;8.42;100.00
11413;BME280;5762;43.256;26.960;2023-03-22T01:05:08;99512.44;;;8.53;100.00
11413;BME280;5762;43.256;26.960;2023-03-22T01:07:38;99505.89;;;8.59;100.00
11413;BME280;5762;43.256;26.960;2023-03-22T01:10:07;99506.63;;;8.44;100.00
11413;BME280;5762;43.256;26.960;2023-03-22T01:12:35;99503.19;;;8.38;100.00
11413;BME280;5762;43.256;26.960;2023-03-22T01:15:04;99508.84;;;8.39;100.00
11413;BME280;5762;43.256;26.960;2023-03-22T01:17:33;99512.94;;;8.34;100.00
11413;BME280;5762;43.256;26.960;2023-03-22T01:20:02;99504.53;;;8.38;100.00
11413;BME280;5762;43.256;26.960;2023-03-22T01:22:30;99504.30;;;8.34;100.00
11413;BME280;5762;43.256;26.960;2023-03-22T01:24:59;99503.66;;;8.21;100.00
11413;BME280;5762;43.256;26.960;2023-03-22T01:27:28;99501.02;;;8.16;100.00
11413;BME280;5762;43.256;26.960;2023-03-22T01:29:57;99493.27;;;8.10;100.00
11413;BME280;5762;43.256;26.960;2023-03-22T01:32:26;99506.95;;;8.16;100.00
11413;BME280;5762;43.256;26.960;2023-03-22T01:34:54;99509.84;;;8.22;100.00
11413;BME280;5762;43.256;26.960;2023-03-22T01:37:23;99515.75;;;8.24;100.00
11413;BME280;5762;43.256;26.960;2023-03-22T01:39:53;99515.95;;;8.30;100.00
11413;BME280;5762;43.256;26.960;2023-03-22T01:42:22;99514.20;;;8.42;100.00
11413;BME280;5762;43.256;26.960;2023-03-22T01:47:36;99511.02;;;8.37;100.00
11413;BME280;5762;43.256;26.960;2023-03-22T01:50:05;99515.34;;;8.35;100.00
11413;BME280;5762;43.256;26.960;2023-03-22T01:52:34;99507.55;;;8.34;100.00
11413;BME280;5762;43.256;26.960;2023-03-22T01:55:03;99506.53;;;8.51;100.00
11413;BME280;5762;43.256;26.960;2023-03-22T01:57:32;99495.84;;;8.44;100.00
11413;BME280;5762;43.256;26.960;2023-03-22T02:00:01;99496.38;;;8.43;100.00
11413;BME280;5762;43.256;26.960;2023-03-22T02:02:30;99498.02;;;8.42;100.00
11413;BME280;5762;43.256;26.960;2023-03-22T02:04:59;99507.55;;;8.34;100.00
11413;BME280;5762;43.256;26.960;2023-03-22T02:07:32;99506.78;;;8.31;100.00
11413;BME280;5762;43.256;26.960;2023-03-22T02:10:00;99508.90;;;8.34;100.00
11413;BME280;5762;43.256;26.960;2023-03-22T02:12:49;99510.82;;;8.31;100.00
11413;BME280;5762;43.256;26.960;2023-03-22T02:15:23;99500.27;;;8.32;100.00
11413;BME280;5762;43.256;26.960;2023-03-22T02:28:39;99503.63;;;8.24;100.00
11413;BME280;5762;43.256;26.960;2023-03-22T02:31:12;99497.45;;;8.21;100.00
11413;BME280;5762;43.256;26.960;2023-03-22T02:33:43;99496.85;;;8.26;100.00
11413;BME280;5762;43.256;26.960;2023-03-22T02:49:03;99493.52;;;8.32;100.00
11413;BME280;5762;43.256;26.960;2023-03-22T02:51:32;99502.56;;;8.22;100.00
11413;BME280;5762;43.256;26.960;2023-03-22T02:54:05;99505.80;;;8.22;100.00
11413;BME280;5762;43.256;26.960;2023-03-22T02:56:37;99508.70;;;8.28;100.00
11413;BME280;5762;43.256;26.960;2023-03-22T02:59:05;99511.84;;;8.35;100.00
11413;BME280;5762;43.256;26.960;2023-03-22T03:01:38;99507.58;;;8.31;100.00
11413;BME280;5762;43.256;26.960;2023-03-22T03:04:08;99509.02;;;8.24;100.00
11413;BME280;5762;43.256;26.960;2023-03-22T03:06:38;99503.08;;;8.24;100.00
11413;BME280;5762;43.256;26.960;2023-03-22T03:09:06;99506.29;;;8.26;100.00
11413;BME280;5762;43.256;26.960;2023-03-22T03:14:21;99495.09;;;8.38;100.00
11413;BME280;5762;43.256;26.960;2023-03-22T03:16:53;99493.48;;;8.37;100.00
11413;BME280;5762;43.256;26.960;2023-03-22T03:19:34;99493.30;;;8.31;100.00
11413;BME280;5762;43.256;26.960;2023-03-22T03:22:08;99491.00;;;8.19;100.00
11413;BME280;5762;43.256;26.960;2023-03-22T03:24:32;99490.09;;;8.05;100.00
11413;BME280;5762;43.256;26.960;2023-03-22T03:27:04;99489.25;;;8.07;100.00
11413;BME280;5762;43.256;26.960;2023-03-22T03:29:48;99494.22;;;8.21;100.00
11413;BME280;5762;43.256;26.960;2023-03-22T03:37:18;99501.33;;;8.12;100.00
11413;BME280;5762;43.256;26.960;2023-03-22T03:39:44;99497.40;;;8.26;100.00
11413;BME280;5762;43.256;26.960;2023-03-22T03:42:13;99499.41;;;8.15;100.00
11413;BME280;5762;43.256;26.960;2023-03-22T03:44:42;99501.02;;;8.16;100.00
11413;BME280;5762;43.256;26.960;2023-03-22T03:47:11;99501.73;;;8.24;100.00
11413;BME280;5762;43.256;26.960;2023-03-22T03:49:39;99492.67;;;8.15;100.00
11413;BME280;5762;43.256;26.960;2023-03-22T03:52:08;99501.47;;;8.23;100.00
11413;BME280;5762;43.256;26.960;2023-03-22T03:54:36;99498.42;;;8.06;100.00
11413;BME280;5762;43.256;26.960;2023-03-22T03:57:05;99501.12;;;8.06;100.00
11413;BME280;5762;43.256;26.960;2023-03-22T03:59:34;99504.25;;;8.16;100.00
11413;BME280;5762;43.256;26.960;2023-03-22T04:02:03;99505.37;;;8.12;100.00
11413;BME280;5762;43.256;26.960;2023-03-22T04:04:31;99502.41;;;8.11;100.00
11413;BME280;5762;43.256;26.960;2023-03-22T04:07:01;99517.93;;;8.22;100.00
11413;BME280;5762;43.256;26.960;2023-03-22T04:09:35;99512.55;;;8.22;100.00
11413;BME280;5762;43.256;26.960;2023-03-22T04:11:59;99501.55;;;8.16;100.00
11413;BME280;5762;43.256;26.960;2023-03-22T04:14:27;99505.33;;;7.93;100.00
11413;BME280;5762;43.256;26.960;2023-03-22T04:16:56;99498.91;;;7.89;100.00
11413;BME280;5762;43.256;26.960;2023-03-22T04:19:24;99502.38;;;7.92;100.00
11413;BME280;5762;43.256;26.960;2023-03-22T04:21:53;99509.78;;;8.03;100.00
11413;BME280;5762;43.256;26.960;2023-03-22T04:24:21;99520.25;;;8.07;100.00
11413;BME280;5762;43.256;26.960;2023-03-22T04:26:50;99521.25;;;8.14;100.00
11413;BME280;5762;43.256;26.960;2023-03-22T04:29:22;99519.31;;;7.95;100.00
11413;BME280;5762;43.256;26.960;2023-03-22T04:31:50;99513.13;;;7.95;100.00
11413;BME280;5762;43.256;26.960;2023-03-22T04:34:19;99519.39;;;8.12;100.00
11413;BME280;5762;43.256;26.960;2023-03-22T04:36:48;99517.61;;;8.02;100.00
11413;BME280;5762;43.256;26.960;2023-03-22T04:39:17;99524.05;;;8.03;100.00
11413;BME280;5762;43.256;26.960;2023-03-22T04:41:45;99519.83;;;8.21;100.00
11413;BME280;5762;43.256;26.960;2023-03-22T04:44:14;99523.84;;;8.24;100.00
11413;BME280;5762;43.256;26.960;2023-03-22T04:46:42;99518.79;;;8.17;100.00
11413;BME280;5762;43.256;26.960;2023-03-22T04:49:11;99513.70;;;7.92;100.00
11413;BME280;5762;43.256;26.960;2023-03-22T04:51:39;99510.51;;;7.87;100.00
11413;BME280;5762;43.256;26.960;2023-03-22T04:54:08;99513.18;;;7.90;100.00
11413;BME280;5762;43.256;26.960;2023-03-22T04:56:36;99525.61;;;7.86;100.00
11413;BME280;5762;43.256;26.960;2023-03-22T04:59:05;99521.28;;;7.87;100.00
11413;BME280;5762;43.256;26.960;2023-03-22T05:01:33;99526.70;;;8.08;100.00
11413;BME280;5762;43.256;26.960;2023-03-22T05:04:02;99529.06;;;7.91;100.00
11413;BME280;5762;43.256;26.960;2023-03-22T05:06:31;99538.63;;;8.02;100.00
11413;BME280;5762;43.256;26.960;2023-03-22T05:09:00;99542.48;;;7.96;100.00
11413;BME280;5762;43.256;26.960;2023-03-22T05:11:28;99542.48;;;7.96;100.00
11413;BME280;5762;43.256;26.960;2023-03-22T05:13:56;99550.85;;;7.95;100.00
11413;BME280;5762;43.256;26.960;2023-03-22T05:16:25;99553.65;;;8.08;100.00
11413;BME280;5762;43.256;26.960;2023-03-22T05:18:53;99557.41;;;8.10;100.00
11413;BME280;5762;43.256;26.960;2023-03-22T05:21:22;99558.97;;;8.16;100.00
11413;BME280;5762;43.256;26.960;2023-03-22T05:23:55;99560.55;;;8.20;100.00
11413;BME280;5762;43.256;26.960;2023-03-22T05:26:24;99568.89;;;8.21;100.00
11413;BME280;5762;43.256;26.960;2023-03-22T05:28:53;99573.53;;;8.15;100.00
11413;BME280;5762;43.256;26.960;2023-03-22T05:31:22;99570.70;;;8.28;100.00
11413;BME280;5762;43.256;26.960;2023-03-22T05:33:53;99582.89;;;8.23;100.00
11413;BME280;5762;43.256;26.960;2023-03-22T05:36:21;99585.30;;;8.24;100.00
11413;BME280;5762;43.256;26.960;2023-03-22T05:38:49;99590.36;;;8.31;100.00
11413;BME280;5762;43.256;26.960;2023-03-22T05:41:18;99591.13;;;8.34;100.00
11413;BME280;5762;43.256;26.960;2023-03-22T05:43:50;99594.84;;;8.40;100.00
11413;BME280;5762;43.256;26.960;2023-03-22T05:46:18;99598.83;;;8.46;100.00
11413;BME280;5762;43.256;26.960;2023-03-22T05:48:47;99595.90;;;8.42;100.00
11413;BME280;5762;43.256;26.960;2023-03-22T05:51:16;99603.16;;;8.44;100.00
11413;BME280;5762;43.256;26.960;2023-03-22T05:53:45;99598.28;;;8.20;100.00
11413;BME280;5762;43.256;26.960;2023-03-22T05:56:14;99602.33;;;8.20;100.00
11413;BME280;5762;43.256;26.960;2023-03-22T05:58:42;99604.38;;;8.30;100.00
11413;BME280;5762;43.256;26.960;2023-03-22T06:01:11;99609.56;;;8.24;100.00
11413;BME280;5762;43.256;26.960;2023-03-22T06:03:39;99611.07;;;8.35;100.00
11413;BME280;5762;43.256;26.960;2023-03-22T06:06:08;99616.08;;;8.47;100.00
11413;BME280;5762;43.256;26.960;2023-03-22T06:08:37;99616.91;;;8.45;100.00
11413;BME280;5762;43.256;26.960;2023-03-22T06:11:08;99620.09;;;8.50;100.00
11413;BME280;5762;43.256;26.960;2023-03-22T06:13:36;99621.73;;;8.48;100.00
11413;BME280;5762;43.256;26.960;2023-03-22T06:16:05;99613.30;;;8.55;100.00
11413;BME280;5762;43.256;26.960;2023-03-22T06:18:33;99613.89;;;8.49;100.00
11413;BME280;5762;43.256;26.960;2023-03-22T06:21:02;99617.39;;;8.50;100.00
11413;BME280;5762;43.256;26.960;2023-03-22T06:23:30;99622.45;;;8.56;100.00
11413;BME280;5762;43.256;26.960;2023-03-22T06:25:59;99618.63;;;8.60;100.00
11413;BME280;5762;43.256;26.960;2023-03-22T06:28:28;99615.24;;;8.49;100.00
11413;BME280;5762;43.256;26.960;2023-03-22T06:30:57;99619.03;;;8.48;100.00
11413;BME280;5762;43.256;26.960;2023-03-22T06:33:25;99620.01;;;8.57;100.00
11413;BME280;5762;43.256;26.960;2023-03-22T06:35:54;99625.09;;;8.61;100.00
11413;BME280;5762;43.256;26.960;2023-03-22T06:38:23;99617.91;;;8.73;100.00
11413;BME280;5762;43.256;26.960;2023-03-22T06:40:52;99624.05;;;8.79;100.00
11413;BME280;5762;43.256;26.960;2023-03-22T06:43:21;99626.47;;;8.80;100.00
11413;BME280;5762;43.256;26.960;2023-03-22T06:45:50;99626.12;;;8.87;100.00
11413;BME280;5762;43.256;26.960;2023-03-22T06:48:19;99626.17;;;8.82;100.00
11413;BME280;5762;43.256;26.960;2023-03-22T06:50:48;99632.00;;;8.67;100.00
11413;BME280;5762;43.256;26.960;2023-03-22T06:53:16;99634.39;;;8.71;100.00
11413;BME280;5762;43.256;26.960;2023-03-22T06:55:45;99630.23;;;8.60;100.00
11413;BME280;5762;43.256;26.960;2023-03-22T06:58:13;99634.30;;;8.79;100.00
11413;BME280;5762;43.256;26.960;2023-03-22T07:00:42;99635.59;;;8.84;100.00
11413;BME280;5762;43.256;26.960;2023-03-22T07:03:11;99635.44;;;8.97;100.00
11413;BME280;5762;43.256;26.960;2023-03-22T07:05:39;99635.15;;;8.98;100.00
11413;BME280;5762;43.256;26.960;2023-03-22T07:08:07;99637.11;;;8.93;100.00
11413;BME280;5762;43.256;26.960;2023-03-22T07:10:35;99634.87;;;8.76;100.00
11413;BME280;5762;43.256;26.960;2023-03-22T07:13:09;99644.44;;;9.08;100.00
11413;BME280;5762;43.256;26.960;2023-03-22T07:15:34;99641.77;;;8.87;100.00
11413;BME280;5762;43.256;26.960;2023-03-22T07:18:02;99647.17;;;9.06;100.00
11413;BME280;5762;43.256;26.960;2023-03-22T07:20:31;99642.77;;;9.13;100.00
11413;BME280;5762;43.256;26.960;2023-03-22T07:23:00;99645.15;;;9.17;100.00
11413;BME280;5762;43.256;26.960;2023-03-22T07:25:29;99643.50;;;9.37;100.00
11413;BME280;5762;43.256;26.960;2023-03-22T07:27:58;99647.55;;;8.99;100.00
11413;BME280;5762;43.256;26.960;2023-03-22T07:30:27;99646.98;;;9.21;100.00
11413;BME280;5762;43.256;26.960;2023-03-22T07:32:56;99646.59;;;9.09;100.00
11413;BME280;5762;43.256;26.960;2023-03-22T07:35:24;99645.92;;;9.20;100.00
11413;BME280;5762;43.256;26.960;2023-03-22T07:37:53;99643.03;;;9.14;100.00
11413;BME280;5762;43.256;26.960;2023-03-22T07:40:22;99648.61;;;9.38;100.00
11413;BME280;5762;43.256;26.960;2023-03-22T07:42:50;99653.43;;;9.41;100.00
11413;BME280;5762;43.256;26.960;2023-03-22T07:45:19;99651.13;;;9.51;100.00
11413;BME280;5762;43.256;26.960;2023-03-22T07:47:47;99656.86;;;9.47;100.00
11413;BME280;5762;43.256;26.960;2023-03-22T07:50:16;99649.89;;;9.62;100.00
11413;BME280;5762;43.256;26.960;2023-03-22T07:52:45;99650.08;;;9.50;100.00
11413;BME280;5762;43.256;26.960;2023-03-22T07:55:13;99654.81;;;9.39;100.00
11413;BME280;5762;43.256;26.960;2023-03-22T07:57:42;99658.00;;;9.62;100.00
11413;BME280;5762;43.256;26.960;2023-03-22T08:00:11;99656.09;;;9.44;100.00
11413;BME280;5762;43.256;26.960;2023-03-22T08:02:41;99655.19;;;9.51;100.00
11413;BME280;5762;43.256;26.960;2023-03-22T08:05:09;99664.17;;;9.65;100.00
11413;BME280;5762;43.256;26.960;2023-03-22T08:07:38;99664.02;;;9.57;100.00
11413;BME280;5762;43.256;26.960;2023-03-22T08:10:07;99661.76;;;9.64;100.00
11413;BME280;5762;43.256;26.960;2023-03-22T08:12:36;99663.84;;;9.69;100.00
11413;BME280;5762;43.256;26.960;2023-03-22T08:15:04;99671.58;;;9.73;100.00
11413;BME280;5762;43.256;26.960;2023-03-22T08:17:32;99669.35;;;9.78;100.00
11413;BME280;5762;43.256;26.960;2023-03-22T08:20:00;99668.92;;;9.71;100.00
11413;BME280;5762;43.256;26.960;2023-03-22T08:22:29;99668.98;;;9.50;100.00
11413;BME280;5762;43.256;26.960;2023-03-22T08:24:58;99671.28;;;9.40;100.00
11413;BME280;5762;43.256;26.960;2023-03-22T08:27:27;99663.66;;;9.45;100.00
11413;BME280;5762;43.256;26.960;2023-03-22T08:29:56;99670.95;;;9.63;100.00
11413;BME280;5762;43.256;26.960;2023-03-22T08:32:24;99667.67;;;9.82;100.00
11413;BME280;5762;43.256;26.960;2023-03-22T08:34:53;99666.44;;;9.74;100.00
11413;BME280;5762;43.256;26.960;2023-03-22T08:37:22;99668.70;;;9.70;100.00
11413;BME280;5762;43.256;26.960;2023-03-22T08:39:50;99669.14;;;9.74;100.00
11413;BME280;5762;43.256;26.960;2023-03-22T08:42:19;99669.43;;;9.73;100.00
11413;BME280;5762;43.256;26.960;2023-03-22T08:44:48;99669.64;;;9.60;100.00
11413;BME280;5762;43.256;26.960;2023-03-22T08:47:21;99675.48;;;9.49;100.00
11413;BME280;5762;43.256;26.960;2023-03-22T08:49:49;99674.58;;;9.56;100.00
11413;BME280;5762;43.256;26.960;2023-03-22T08:52:18;99678.30;;;9.60;100.00
11413;BME280;5762;43.256;26.960;2023-03-22T08:54:47;99678.34;;;9.73;100.00
11413;BME280;5762;43.256;26.960;2023-03-22T08:57:16;99679.86;;;9.45;100.00
11413;BME280;5762;43.256;26.960;2023-03-22T08:59:45;99679.86;;;9.45;100.00
11413;BME280;5762;43.256;26.960;2023-03-22T09:02:14;99681.44;;;9.67;100.00
11413;BME280;5762;43.256;26.960;2023-03-22T09:04:43;99679.14;;;9.58;100.00
11413;BME280;5762;43.256;26.960;2023-03-22T09:07:12;99684.33;;;9.35;100.00
11413;BME280;5762;43.256;26.960;2023-03-22T09:09:40;99690.63;;;9.47;100.00
11413;BME280;5762;43.256;26.960;2023-03-22T09:12:09;99685.78;;;9.65;100.00
11413;BME280;5762;43.256;26.960;2023-03-22T09:14:38;99687.03;;;9.70;100.00
11413;BME280;5762;43.256;26.960;2023-03-22T09:17:07;99692.80;;;9.83;100.00
11413;BME280;5762;43.256;26.960;2023-03-22T09:19:36;99697.28;;;10.06;100.00
11413;BME280;5762;43.256;26.960;2023-03-22T09:22:04;99692.43;;;9.89;100.00
11413;BME280;5762;43.256;26.960;2023-03-22T09:24:34;99691.26;;;9.95;100.00
11413;BME280;5762;43.256;26.960;2023-03-22T09:27:02;99690.91;;;9.83;100.00
11413;BME280;5762;43.256;26.960;2023-03-22T09:29:30;99693.05;;;9.84;100.00
11413;BME280;5762;43.256;26.960;2023-03-22T09:31:59;99694.45;;;9.81;100.00
11413;BME280;5762;43.256;26.960;2023-03-22T09:34:28;99696.13;;;9.77;100.00
11413;BME280;5762;43.256;26.960;2023-03-22T09:36:57;99693.09;;;9.81;100.00
11413;BME280;5762;43.256;26.960;2023-03-22T09:39:26;99690.91;;;9.83;100.00
11413;BME280;5762;43.256;26.960;2023-03-22T09:41:56;99691.12;;;9.87;100.00
11413;BME280;5762;43.256;26.960;2023-03-22T09:44:35;99693.34;;;9.82;100.00
11413;BME280;5762;43.256;26.960;2023-03-22T09:47:03;99694.92;;;9.86;100.00
11413;BME280;5762;43.256;26.960;2023-03-22T09:49:37;99701.48;;;9.98;100.00
11413;BME280;5762;43.256;26.960;2023-03-22T09:52:08;99701.02;;;9.94;100.00
11413;BME280;5762;43.256;26.960;2023-03-22T09:54:36;99697.21;;;9.95;100.00
11413;BME280;5762;43.256;26.960;2023-03-22T09:59:43;99695.74;;;10.02;100.00
11413;BME280;5762;43.256;26.960;2023-03-22T10:02:32;99697.62;;;10.21;100.00
11413;BME280;5762;43.256;26.960;2023-03-22T10:10:08;99698.22;;;10.15;100.00
11413;BME280;5762;43.256;26.960;2023-03-22T10:12:46;99696.70;;;10.41;100.00
11413;BME280;5762;43.256;26.960;2023-03-22T10:15:14;99705.78;;;10.48;100.00
11413;BME280;5762;43.256;26.960;2023-03-22T10:17:48;99703.03;;;10.51;100.00
11413;BME280;5762;43.256;26.960;2023-03-22T10:20:17;99704.34;;;10.53;100.00
11413;BME280;5762;43.256;26.960;2023-03-22T10:22:42;99702.14;;;10.55;100.00
11413;BME280;5762;43.256;26.960;2023-03-22T10:25:14;99701.73;;;10.48;100.00
11413;BME280;5762;43.256;26.960;2023-03-22T10:27:40;99699.95;;;10.41;100.00
11413;BME280;5762;43.256;26.960;2023-03-22T10:30:18;99692.25;;;10.34;100.00
11413;BME280;5762;43.256;26.960;2023-03-22T10:32:47;99695.72;;;10.21;100.00
11413;BME280;5762;43.256;26.960;2023-03-22T10:35:16;99693.30;;;10.03;100.00
11413;BME280;5762;43.256;26.960;2023-03-22T10:37:48;99693.70;;;9.94;100.00
11413;BME280;5762;43.256;26.960;2023-03-22T10:40:18;99693.78;;;9.89;100.00
11413;BME280;5762;43.256;26.960;2023-03-22T10:42:52;99694.19;;;9.80;100.00
11413;BME280;5762;43.256;26.960;2023-03-22T10:45:16;99692.75;;;10.04;100.00
11413;BME280;5762;43.256;26.960;2023-03-22T10:47:52;99698.77;;;10.15;100.00
11413;BME280;5762;43.256;26.960;2023-03-22T10:50:19;99693.52;;;10.23;100.00
11413;BME280;5762;43.256;26.960;2023-03-22T10:55:25;99692.92;;;10.26;100.00
11413;BME280;5762;43.256;26.960;2023-03-22T10:58:07;99686.50;;;10.38;100.00
11413;BME280;5762;43.256;26.960;2023-03-22T11:00:23;99685.19;;;10.36;100.00
11413;BME280;5762;43.256;26.960;2023-03-22T11:02:56;99685.23;;;10.47;100.00
11413;BME280;5762;43.256;26.960;2023-03-22T11:05:23;99677.12;;;10.47;100.00
11413;BME280;5762;43.256;26.960;2023-03-22T11:07:52;99677.92;;;10.34;100.00
11413;BME280;5762;43.256;26.960;2023-03-22T11:10:24;99673.45;;;10.27;100.00
11413;BME280;5762;43.256;26.960;2023-03-22T11:13:09;99675.00;;;10.30;100.00
11413;BME280;5762;43.256;26.960;2023-03-22T11:15:29;99668.00;;;10.11;100.00
11413;BME280;5762;43.256;26.960;2023-03-22T11:18:00;99672.14;;;10.05;100.00
11413;BME280;5762;43.256;26.960;2023-03-22T11:20:28;99670.03;;;10.19;100.00
11413;BME280;5762;43.256;26.960;2023-03-22T11:22:56;99672.27;;;10.33;100.00
11413;BME280;5762;43.256;26.960;2023-03-22T11:25:26;99673.66;;;10.44;100.00
11413;BME280;5762;43.256;26.960;2023-03-22T11:30:34;99669.85;;;10.45;100.00
11413;BME280;5762;43.256;26.960;2023-03-22T11:35:34;99661.73;;;10.45;100.00
11413;BME280;5762;43.256;26.960;2023-03-22T11:38:03;99660.31;;;10.18;100.00
11413;BME280;5762;43.256;26.960;2023-03-22T11:40:32;99660.77;;;10.25;100.00
11413;BME280;5762;43.256;26.960;2023-03-22T11:45:40;99656.30;;;10.15;100.00
11413;BME280;5762;43.256;26.960;2023-03-22T11:48:12;99651.06;;;10.05;100.00
11413;BME280;5762;43.256;26.960;2023-03-22T11:50:42;99651.82;;;10.08;100.00
11413;BME280;5762;43.256;26.960;2023-03-22T11:53:16;99654.98;;;10.13;100.00
11413;BME280;5762;43.256;26.960;2023-03-22T11:55:40;99663.11;;;10.13;100.00
11413;BME280;5762;43.256;26.960;2023-03-22T12:00:56;99658.33;;;10.07;100.00
11413;BME280;5762;43.256;26.960;2023-03-22T12:03:26;99656.74;;;9.90;100.00
11413;BME280;5762;43.256;26.960;2023-03-22T12:05:54;99653.25;;;9.70;100.00
11413;BME280;5762;43.256;26.960;2023-03-22T12:08:39;99650.66;;;9.65;100.00
11413;BME280;5762;43.256;26.960;2023-03-22T12:11:21;99647.81;;;9.73;100.00
11413;BME280;5762;43.256;26.960;2023-03-22T12:13:45;99643.13;;;9.79;100.00
11413;BME280;5762;43.256;26.960;2023-03-22T12:16:14;99641.41;;;10.01;100.00
11413;BME280;5762;43.256;26.960;2023-03-22T12:18:47;99638.91;;;9.89;100.00
11413;BME280;5762;43.256;26.960;2023-03-22T12:21:16;99642.97;;;9.89;100.00
11413;BME280;5762;43.256;26.960;2023-03-22T12:23:45;99646.27;;;10.02;100.00
11413;BME280;5762;43.256;26.960;2023-03-22T12:26:15;99653.74;;;9.91;100.00
11413;BME280;5762;43.256;26.960;2023-03-22T12:28:49;99646.87;;;9.99;100.00
11413;BME280;5762;43.256;26.960;2023-03-22T12:31:20;99643.13;;;9.79;100.00
11413;BME280;5762;43.256;26.960;2023-03-22T12:33:55;99645.95;;;9.71;100.00
11413;BME280;5762;43.256;26.960;2023-03-22T12:36:38;99645.91;;;9.73;100.00
11413;BME280;5762;43.256;26.960;2023-03-22T12:39:05;99640.64;;;9.82;100.00
11413;BME280;5762;43.256;26.960;2023-03-22T12:41:37;99639.12;;;9.76;100.00
11413;BME280;5762;43.256;26.960;2023-03-22T12:44:22;99636.16;;;9.75;100.00
11413;BME280;5762;43.256;26.960;2023-03-22T12:49:35;99633.68;;;9.62;100.00
11413;BME280;5762;43.256;26.960;2023-03-22T12:52:17;99635.39;;;9.56;100.00
11413;BME280;5762;43.256;26.960;2023-03-22T12:54:46;99634.38;;;9.52;100.00
11413;BME280;5762;43.256;26.960;2023-03-22T12:57:15;99638.16;;;9.69;100.00
11413;BME280;5762;43.256;26.960;2023-03-22T12:59:50;99637.04;;;9.70;100.00
11413;BME280;5762;43.256;26.960;2023-03-22T13:02:30;99639.95;;;9.74;100.00
11413;BME280;5762;43.256;26.960;2023-03-22T13:04:50;99642.15;;;9.72;100.00
11413;BME280;5762;43.256;26.960;2023-03-22T13:09:57;99649.55;;;9.83;100.00
11413;BME280;5762;43.256;26.960;2023-03-22T13:12:30;99651.31;;;10.06;100.00
11413;BME280;5762;43.256;26.960;2023-03-22T13:14:56;99645.91;;;10.06;100.00
11413;BME280;5762;43.256;26.960;2023-03-22T13:19:57;99646.92;;;10.10;100.00
11413;BME280;5762;43.256;26.960;2023-03-22T13:24:57;99644.63;;;10.03;100.00
11413;BME280;5762;43.256;26.960;2023-03-22T13:35:27;99640.73;;;9.93;100.00
11413;BME280;5762;43.256;26.960;2023-03-22T13:38:02;99637.73;;;9.95;100.00
11413;BME280;5762;43.256;26.960;2023-03-22T13:40:35;99633.80;;;9.87;100.00
11413;BME280;5762;43.256;26.960;2023-03-22T13:43:11;99630.60;;;10.01;100.00
11413;BME280;5762;43.256;26.960;2023-03-22T13:48:27;99631.83;;;9.93;100.00
11413;BME280;5762;43.256;26.960;2023-03-22T13:50:46;99627.09;;;10.01;100.00
11413;BME280;5762;43.256;26.960;2023-03-22T13:53:22;99632.46;;;10.03;100.00
11413;BME280;5762;43.256;26.960;2023-03-22T14:03:41;99630.99;;;10.08;100.00
11413;BME280;5762;43.256;26.960;2023-03-22T14:06:30;99622.74;;;10.02;100.00
11413;BME280;5762;43.256;26.960;2023-03-22T14:08:44;99623.16;;;9.93;100.00
11413;BME280;5762;43.256;26.960;2023-03-22T14:13:49;99619.84;;;10.13;100.00
11413;BME280;5762;43.256;26.960;2023-03-22T14:16:37;99616.33;;;9.98;100.00
11413;BME280;5762;43.256;26.960;2023-03-22T14:19:05;99615.53;;;10.12;100.00
11413;BME280;5762;43.256;26.960;2023-03-22T14:21:37;99614.77;;;10.08;100.00
11413;BME280;5762;43.256;26.960;2023-03-22T14:24:06;99614.73;;;10.11;100.00
11413;BME280;5762;43.256;26.960;2023-03-22T14:26:39;99621.91;;;10.18;100.00
11413;BME280;5762;43.256;26.960;2023-03-22T14:29:08;99612.88;;;10.25;100.00
11413;BME280;5762;43.256;26.960;2023-03-22T14:31:41;99617.40;;;10.30;100.00
11413;BME280;5762;43.256;26.960;2023-03-22T14:34:07;99613.30;;;10.32;100.00
11413;BME280;5762;43.256;26.960;2023-03-22T14:36:38;99613.33;;;10.14;100.00